Time;durP1;ratioP1;P1;durP2;ratioP2;P2;SDS_P1;SDS_P2;PMS_P1;PMS_P2;Temp;Humidity;BMP_temperature;BMP_pressure;BME280_temperature;BME280_humidity;BME280_pressure;Samples;Min_cycle;Max_cycle;Signal;HPM_P1;HPM_P2
2021/01/10 00:01:28;;;;;;;34.38;16.85;;;;;;;;;;5073660;28;20320;-72
2021/01/10 00:03:54;;;;;;;33.92;17.05;;;;;;;;;;5072145;28;20553;-73
2021/01/10 00:06:20;;;;;;;34.53;17.55;;;;;;;;;;5072902;28;20088;-73
2021/01/10 00:08:47;;;;;;;35.47;17.50;;;;;;;;;;5073444;28;20426;-73
2021/01/10 00:11:13;;;;;;;33.53;16.75;;;;;;;;;;5073403;28;20052;-74
2021/01/10 00:13:39;;;;;;;33.40;16.15;;;;;;;;;;5073055;28;20569;-71
2021/01/10 00:16:05;;;;;;;35.97;17.95;;;;;;;;;;5071355;28;20060;-73
2021/01/10 00:18:31;;;;;;;30.63;17.00;;;;;;;;;;5072692;28;20048;-74
2021/01/10 00:20:57;;;;;;;36.00;16.65;;;;;;;;;;5072880;28;20044;-74
2021/01/10 00:23:23;;;;;;;33.72;16.60;;;;;;;;;;5072787;28;20090;-73
2021/01/10 00:25:51;;;;;;;31.95;17.13;;;;;;;;;;5071471;28;20055;-73
2021/01/10 00:28:17;;;;;;;36.72;17.23;;;;;;;;;;5072888;28;20491;-73
2021/01/10 00:30:44;;;;;;;36.33;17.05;;;;;;;;;;5072878;28;20044;-73
2021/01/10 00:33:10;;;;;;;34.17;18.08;;;;;;;;;;5054987;28;20052;-73
2021/01/10 00:35:37;;;;;;;32.10;16.55;;;;;;;;;;5072468;28;20044;-73
2021/01/10 00:38:03;;;;;;;31.88;16.02;;;;;;;;;;5072747;28;20131;-73
2021/01/10 00:40:29;;;;;;;30.55;15.48;;;;;;;;;;5072660;28;20131;-73
2021/01/10 00:42:56;;;;;;;28.77;16.05;;;;;;;;;;5072730;28;20094;-73
2021/01/10 00:45:22;;;;;;;33.33;16.60;;;;;;;;;;5071048;28;20503;-73
2021/01/10 00:47:48;;;;;;;31.27;15.90;;;;;;;;;;5071457;28;20048;-73
2021/01/10 00:50:15;;;;;;;34.25;17.23;;;;;;;;;;5072380;28;20461;-74
2021/01/10 00:52:41;;;;;;;38.75;17.27;;;;;;;;;;5072602;28;20045;-74
2021/01/10 00:55:07;;;;;;;34.80;16.90;;;;;;;;;;5072320;28;20052;-74
2021/01/10 00:57:34;;;;;;;35.28;18.92;;;;;;;;;;5053817;28;20049;-73
2021/01/10 01:00:06;;;;;;;37.58;18.15;;;;;;;;;;5071405;28;20056;-74
2021/01/10 01:02:32;;;;;;;37.05;18.02;;;;;;;;;;5071058;28;20052;-74
2021/01/10 01:04:58;;;;;;;40.40;19.00;;;;;;;;;;5072408;28;20423;-74
2021/01/10 01:07:24;;;;;;;35.53;17.60;;;;;;;;;;5071908;28;20457;-73
2021/01/10 01:09:50;;;;;;;38.10;17.90;;;;;;;;;;5071383;28;20063;-74
2021/01/10 01:12:24;;;;;;;35.28;17.05;;;;;;;;;;5052079;28;20163;-73
2021/01/10 01:14:50;;;;;;;31.60;16.45;;;;;;;;;;5051965;28;20542;-74
2021/01/10 01:17:17;;;;;;;34.10;16.83;;;;;;;;;;5051894;28;20049;-73
2021/01/10 01:19:44;;;;;;;34.00;16.83;;;;;;;;;;5050970;28;20567;-73
2021/01/10 01:22:10;;;;;;;34.05;16.90;;;;;;;;;;5050980;28;20056;-73
2021/01/10 01:24:37;;;;;;;32.95;17.83;;;;;;;;;;5050564;28;20118;-73
2021/01/10 01:27:03;;;;;;;34.50;17.38;;;;;;;;;;5051784;28;20056;-73
2021/01/10 01:29:29;;;;;;;33.17;16.90;;;;;;;;;;5051780;28;20049;-73
2021/01/10 01:31:55;;;;;;;35.13;17.23;;;;;;;;;;5051101;28;20049;-73
2021/01/10 01:34:22;;;;;;;31.60;16.73;;;;;;;;;;5050515;28;20045;-73
2021/01/10 01:36:48;;;;;;;34.08;16.85;;;;;;;;;;5052257;28;20048;-73
2021/01/10 01:39:15;;;;;;;28.17;16.77;;;;;;;;;;5052571;28;20099;-73
2021/01/10 01:41:41;;;;;;;34.25;16.48;;;;;;;;;;5052107;28;20102;-74
2021/01/10 01:44:10;;;;;;;33.80;15.82;;;;;;;;;;5034112;28;20041;-73
2021/01/10 01:46:37;;;;;;;33.42;16.17;;;;;;;;;;5051407;28;20107;-73
2021/01/10 01:49:09;;;;;;;35.63;16.75;;;;;;;;;;5051586;28;20491;-73
2021/01/10 01:51:35;;;;;;;33.00;16.73;;;;;;;;;;5051605;28;20055;-73
2021/01/10 01:54:03;;;;;;;31.75;17.30;;;;;;;;;;5051710;28;20084;-73
2021/01/10 01:56:29;;;;;;;30.58;15.23;;;;;;;;;;5050024;28;20053;-73
2021/01/10 01:59:13;;;;;;;33.97;16.80;;;;;;;;;;5063448;28;20049;-74
2021/01/10 02:01:39;;;;;;;33.63;15.82;;;;;;;;;;5071758;28;20052;-72
2021/01/10 02:04:27;;;;;;;33.97;17.02;;;;;;;;;;5071546;28;20048;-72
2021/01/10 02:06:59;;;;;;;33.90;15.57;;;;;;;;;;5056105;28;20121;-71
2021/01/10 02:09:26;;;;;;;25.17;12.60;;;;;;;;;;5071468;28;20044;-72
2021/01/10 02:11:53;;;;;;;29.88;14.07;;;;;;;;;;5070245;28;20048;-71
2021/01/10 02:14:21;;;;;;;31.75;15.90;;;;;;;;;;5053460;28;20044;-71
2021/01/10 02:16:47;;;;;;;39.38;17.38;;;;;;;;;;5053529;28;20052;-72
2021/01/10 02:19:18;;;;;;;31.63;16.45;;;;;;;;;;5053415;28;20503;-72
2021/01/10 02:21:44;;;;;;;32.88;16.70;;;;;;;;;;5053977;28;20059;-72
2021/01/10 02:24:11;;;;;;;31.73;15.48;;;;;;;;;;5053378;28;20106;-72
2021/01/10 02:26:37;;;;;;;32.20;16.42;;;;;;;;;;5069942;28;20045;-71
2021/01/10 02:29:03;;;;;;;27.90;14.63;;;;;;;;;;5070059;28;20495;-71
2021/01/10 02:31:29;;;;;;;33.40;16.75;;;;;;;;;;5053530;28;20114;-72
2021/01/10 02:33:55;;;;;;;28.30;13.55;;;;;;;;;;5053357;28;20121;-72
2021/01/10 02:36:26;;;;;;;30.98;15.25;;;;;;;;;;5070668;28;20052;-71
2021/01/10 02:39:33;;;;;;;27.60;14.73;;;;;;;;;;5050009;28;20049;-71
2021/01/10 02:42:10;;;;;;;30.02;13.90;;;;;;;;;;5010698;28;20174;-71
2021/01/10 02:44:50;;;;;;;30.52;15.23;;;;;;;;;;5037209;28;20515;-71
2021/01/10 02:47:16;;;;;;;32.47;14.90;;;;;;;;;;5037565;28;20052;-72
2021/01/10 02:49:42;;;;;;;26.60;14.77;;;;;;;;;;5053649;28;20075;-71
2021/01/10 02:52:08;;;;;;;26.58;14.25;;;;;;;;;;5053590;28;20082;-71
2021/01/10 02:54:34;;;;;;;26.48;13.82;;;;;;;;;;5036819;28;20041;-71
2021/01/10 02:57:09;;;;;;;30.58;14.88;;;;;;;;;;5054599;28;20061;-71
2021/01/10 02:59:39;;;;;;;30.10;14.60;;;;;;;;;;5053441;28;20053;-72
2021/01/10 03:02:05;;;;;;;30.05;14.13;;;;;;;;;;5053294;28;20565;-71
2021/01/10 03:04:31;;;;;;;27.13;14.48;;;;;;;;;;5053042;28;20045;-71
2021/01/10 03:07:01;;;;;;;29.60;14.90;;;;;;;;;;5038831;28;20044;-71
2021/01/10 03:09:27;;;;;;;29.83;14.30;;;;;;;;;;5056603;28;20053;-71
2021/01/10 03:11:53;;;;;;;26.20;14.27;;;;;;;;;;5056686;28;20078;-72
2021/01/10 03:14:20;;;;;;;26.75;14.07;;;;;;;;;;5056423;28;20530;-72
2021/01/10 03:16:48;;;;;;;24.80;13.05;;;;;;;;;;5065637;28;20063;-72
2021/01/10 03:19:15;;;;;;;29.77;14.80;;;;;;;;;;5036735;28;20080;-72
2021/01/10 03:21:41;;;;;;;29.65;14.77;;;;;;;;;;5036286;28;20099;-71
2021/01/10 03:24:08;;;;;;;24.77;12.25;;;;;;;;;;5054044;28;20045;-71
2021/01/10 03:26:34;;;;;;;29.77;14.32;;;;;;;;;;5052535;28;20111;-71
2021/01/10 03:29:01;;;;;;;27.80;13.27;;;;;;;;;;5054060;28;20085;-71
2021/01/10 03:31:27;;;;;;;28.95;12.88;;;;;;;;;;5053654;28;20113;-71
2021/01/10 03:33:53;;;;;;;25.85;13.85;;;;;;;;;;5036370;28;20041;-71
2021/01/10 03:36:19;;;;;;;28.00;14.13;;;;;;;;;;5053488;28;20094;-71
2021/01/10 03:38:45;;;;;;;22.10;12.88;;;;;;;;;;5052796;28;20049;-71
2021/01/10 03:41:11;;;;;;;27.85;13.35;;;;;;;;;;5065435;28;20052;-71
2021/01/10 03:43:38;;;;;;;27.75;14.55;;;;;;;;;;5072743;28;20044;-71
2021/01/10 03:46:04;;;;;;;28.38;13.07;;;;;;;;;;5073373;28;20121;-71
2021/01/10 03:48:35;;;;;;;24.88;12.70;;;;;;;;;;5072373;28;20098;-71
2021/01/10 03:51:01;;;;;;;29.63;13.38;;;;;;;;;;5056302;28;20060;-71
2021/01/10 03:53:27;;;;;;;29.35;13.80;;;;;;;;;;5054932;28;20107;-71
2021/01/10 03:55:53;;;;;;;27.55;14.18;;;;;;;;;;5053096;28;20146;-71
2021/01/10 03:58:19;;;;;;;30.27;13.25;;;;;;;;;;5053383;28;20049;-71
2021/01/10 04:00:45;;;;;;;30.67;13.60;;;;;;;;;;5052312;28;20056;-71
2021/01/10 04:03:12;;;;;;;22.77;13.07;;;;;;;;;;5053392;28;20111;-71
2021/01/10 04:05:38;;;;;;;28.08;14.40;;;;;;;;;;5053076;28;20053;-71
2021/01/10 04:08:06;;;;;;;26.90;14.02;;;;;;;;;;5053683;28;20049;-72
2021/01/10 04:10:33;;;;;;;26.52;13.60;;;;;;;;;;5053409;28;20115;-72
2021/01/10 04:12:59;;;;;;;22.23;12.85;;;;;;;;;;5053284;28;20053;-71
2021/01/10 04:15:25;;;;;;;25.90;13.30;;;;;;;;;;5052795;28;20049;-72
2021/01/10 04:17:51;;;;;;;25.85;13.57;;;;;;;;;;5052047;28;20079;-71
2021/01/10 04:20:18;;;;;;;23.45;12.20;;;;;;;;;;5053032;28;20049;-71
2021/01/10 04:22:44;;;;;;;24.58;14.38;;;;;;;;;;5053162;28;20045;-72
2021/01/10 04:25:11;;;;;;;24.75;13.50;;;;;;;;;;5064172;28;20473;-72
2021/01/10 04:27:37;;;;;;;23.58;12.02;;;;;;;;;;5055097;28;20053;-71
2021/01/10 04:30:06;;;;;;;25.23;13.57;;;;;;;;;;5072920;28;20055;-71
2021/01/10 04:32:32;;;;;;;24.75;13.13;;;;;;;;;;5071609;28;20044;-71
2021/01/10 04:34:58;;;;;;;22.20;12.18;;;;;;;;;;5072800;28;20049;-71
2021/01/10 04:37:24;;;;;;;21.90;11.05;;;;;;;;;;5072373;28;20049;-71
2021/01/10 04:39:50;;;;;;;24.42;12.27;;;;;;;;;;5072684;28;20075;-71
2021/01/10 04:42:16;;;;;;;23.17;12.40;;;;;;;;;;5072591;28;20052;-71
2021/01/10 04:44:42;;;;;;;21.10;12.55;;;;;;;;;;5054544;28;20084;-71
2021/01/10 04:47:08;;;;;;;22.70;12.90;;;;;;;;;;5072348;28;20082;-72
2021/01/10 04:49:36;;;;;;;26.40;13.85;;;;;;;;;;5063067;28;20090;-71
2021/01/10 04:52:02;;;;;;;24.20;12.40;;;;;;;;;;5054880;28;20056;-71
2021/01/10 04:54:29;;;;;;;24.30;13.73;;;;;;;;;;5054501;28;20491;-71
2021/01/10 04:56:56;;;;;;;22.55;12.95;;;;;;;;;;5071008;28;20044;-71
2021/01/10 04:59:22;;;;;;;25.08;13.95;;;;;;;;;;5054571;28;20049;-72
2021/01/10 05:01:50;;;;;;;26.45;14.00;;;;;;;;;;5071350;28;20533;-71
2021/01/10 05:04:17;;;;;;;28.23;14.40;;;;;;;;;;5070930;28;20048;-71
2021/01/10 05:06:43;;;;;;;23.90;12.52;;;;;;;;;;5070662;28;20048;-71
2021/01/10 05:09:09;;;;;;;21.92;12.55;;;;;;;;;;5053905;28;20450;-71
2021/01/10 05:11:36;;;;;;;24.45;13.77;;;;;;;;;;5052006;28;20079;-71
2021/01/10 05:14:03;;;;;;;23.80;13.27;;;;;;;;;;5051996;28;20519;-71
2021/01/10 05:16:31;;;;;;;25.63;13.68;;;;;;;;;;5050424;28;20049;-71
2021/01/10 05:18:59;;;;;;;22.20;12.52;;;;;;;;;;5052157;28;20045;-71
2021/01/10 05:21:25;;;;;;;23.30;13.02;;;;;;;;;;5050773;28;20052;-71
2021/01/10 05:23:52;;;;;;;22.83;12.45;;;;;;;;;;5034435;28;20491;-72
2021/01/10 05:26:19;;;;;;;24.92;13.48;;;;;;;;;;5050314;28;20048;-71
2021/01/10 05:28:46;;;;;;;25.85;14.10;;;;;;;;;;5051846;28;20059;-71
2021/01/10 05:31:13;;;;;;;26.17;13.07;;;;;;;;;;5051843;28;20053;-71
2021/01/10 05:33:47;;;;;;;23.42;12.05;;;;;;;;;;5050651;28;20466;-72
2021/01/10 05:36:39;;;;;;;23.15;12.45;;;;;;;;;;5051010;28;20230;-72
2021/01/10 05:39:16;;;;;;;21.77;13.05;;;;;;;;;;5030653;28;20080;-71
2021/01/10 05:41:48;;;;;;;24.27;12.63;;;;;;;;;;5051843;28;20056;-71
2021/01/10 05:44:15;;;;;;;24.42;12.75;;;;;;;;;;5050106;28;20518;-71
2021/01/10 05:46:41;;;;;;;22.30;11.95;;;;;;;;;;5052168;28;20397;-71
2021/01/10 05:49:16;;;;;;;25.17;13.45;;;;;;;;;;5034011;28;20049;-71
2021/01/10 05:51:42;;;;;;;24.48;13.63;;;;;;;;;;5034094;28;20049;-71
2021/01/10 05:54:09;;;;;;;24.23;14.23;;;;;;;;;;5050175;28;20049;-71
2021/01/10 05:56:35;;;;;;;23.70;14.75;;;;;;;;;;5050094;28;20110;-71
2021/01/10 05:59:02;;;;;;;27.73;14.77;;;;;;;;;;5050284;28;20053;-71
2021/01/10 06:01:28;;;;;;;23.38;13.77;;;;;;;;;;5051582;28;20044;-71
2021/01/10 06:03:54;;;;;;;24.83;14.63;;;;;;;;;;5050175;28;20099;-72
2021/01/10 06:06:20;;;;;;;21.60;13.43;;;;;;;;;;5051215;28;20053;-71
2021/01/10 06:08:47;;;;;;;24.48;13.73;;;;;;;;;;5050366;28;20081;-71
2021/01/10 06:11:26;;;;;;;27.35;14.82;;;;;;;;;;5051325;28;20049;-72
2021/01/10 06:14:00;;;;;;;23.35;12.70;;;;;;;;;;5034698;28;20665;-71
2021/01/10 06:16:34;;;;;;;21.42;12.35;;;;;;;;;;5033424;28;20565;-71
2021/01/10 06:19:06;;;;;;;23.70;13.10;;;;;;;;;;5037917;28;20056;-72
2021/01/10 06:21:34;;;;;;;25.27;13.57;;;;;;;;;;5054134;28;20060;-71
2021/01/10 06:24:02;;;;;;;25.35;13.57;;;;;;;;;;5037707;28;20056;-71
2021/01/10 06:26:29;;;;;;;22.00;12.50;;;;;;;;;;5037355;28;20076;-71
2021/01/10 06:28:59;;;;;;;23.90;11.82;;;;;;;;;;5037587;28;20045;-72
2021/01/10 06:31:35;;;;;;;25.02;12.88;;;;;;;;;;5055129;28;20052;-71
2021/01/10 06:34:03;;;;;;;23.48;11.82;;;;;;;;;;5053845;28;20080;-71
2021/01/10 06:36:31;;;;;;;23.13;12.82;;;;;;;;;;5053592;28;20053;-72
2021/01/10 06:38:59;;;;;;;26.67;14.50;;;;;;;;;;5053833;28;20443;-72
2021/01/10 06:41:25;;;;;;;21.65;11.10;;;;;;;;;;5054893;28;20081;-72
2021/01/10 06:44:01;;;;;;;21.63;11.77;;;;;;;;;;5055184;28;20480;-72
2021/01/10 06:46:27;;;;;;;23.08;12.10;;;;;;;;;;5074364;28;20533;-72
2021/01/10 06:48:53;;;;;;;22.92;12.73;;;;;;;;;;5039800;28;20052;-72
2021/01/10 06:51:23;;;;;;;19.10;12.00;;;;;;;;;;5053418;28;20106;-71
2021/01/10 06:53:50;;;;;;;22.77;12.57;;;;;;;;;;5053464;28;20488;-72
2021/01/10 06:56:16;;;;;;;23.10;12.80;;;;;;;;;;5036801;28;20107;-72
2021/01/10 06:59:03;;;;;;;23.38;13.00;;;;;;;;;;5053394;28;20136;-72
2021/01/10 07:01:47;;;;;;;23.00;13.45;;;;;;;;;;5054537;28;20069;-72
2021/01/10 07:04:14;;;;;;;23.95;13.18;;;;;;;;;;5054341;28;20052;-72
2021/01/10 07:06:45;;;;;;;24.23;13.27;;;;;;;;;;5036892;28;20049;-72
2021/01/10 07:09:12;;;;;;;23.75;12.38;;;;;;;;;;5053243;28;20079;-72
2021/01/10 07:11:38;;;;;;;22.52;14.90;;;;;;;;;;5053283;28;20045;-72
2021/01/10 07:14:04;;;;;;;26.10;12.93;;;;;;;;;;5053362;28;20044;-71
2021/01/10 07:16:31;;;;;;;24.75;13.98;;;;;;;;;;5053909;28;20072;-72
2021/01/10 07:18:59;;;;;;;23.85;13.55;;;;;;;;;;5053063;28;20045;-71
2021/01/10 07:21:31;;;;;;;22.80;12.32;;;;;;;;;;5052955;28;20049;-72
2021/01/10 07:24:13;;;;;;;21.35;11.30;;;;;;;;;;5052974;28;20045;-72
2021/01/10 07:26:43;;;;;;;20.92;11.43;;;;;;;;;;5053979;28;20134;-72
2021/01/10 07:29:43;;;;;;;23.55;12.13;;;;;;;;;;5051595;28;20075;-72
2021/01/10 07:32:18;;;;;;;22.52;12.05;;;;;;;;;;5067418;28;20415;-72
2021/01/10 07:34:45;;;;;;;20.50;12.50;;;;;;;;;;5072798;28;20500;-72
2021/01/10 07:37:27;;;;;;;21.20;11.27;;;;;;;;;;5073687;28;20059;-72
2021/01/10 07:39:55;;;;;;;21.05;11.07;;;;;;;;;;5044200;28;20115;-71
2021/01/10 07:42:26;;;;;;;21.58;12.50;;;;;;;;;;5016214;28;20111;-71
2021/01/10 07:44:55;;;;;;;20.23;11.70;;;;;;;;;;5016221;28;20126;-71
2021/01/10 07:47:40;;;;;;;21.80;12.52;;;;;;;;;;5048854;28;20045;-71
2021/01/10 07:50:14;;;;;;;20.17;11.40;;;;;;;;;;5016400;28;20056;-71
2021/01/10 07:52:48;;;;;;;21.58;12.43;;;;;;;;;;5065812;28;20101;-71
2021/01/10 07:55:18;;;;;;;18.95;11.35;;;;;;;;;;5073231;28;20052;-70
2021/01/10 07:57:45;;;;;;;22.02;11.52;;;;;;;;;;5073612;28;20048;-70
2021/01/10 08:00:32;;;;;;;21.88;11.75;;;;;;;;;;5072496;28;20071;-70
2021/01/10 08:02:59;;;;;;;22.15;12.50;;;;;;;;;;5073437;28;20049;-69
2021/01/10 08:05:26;;;;;;;20.60;11.32;;;;;;;;;;5072843;28;20040;-70
2021/01/10 08:07:54;;;;;;;20.88;11.52;;;;;;;;;;5073680;28;20049;-69
2021/01/10 08:10:21;;;;;;;22.23;10.82;;;;;;;;;;5072068;28;20094;-70
2021/01/10 08:12:47;;;;;;;21.27;12.55;;;;;;;;;;5053470;28;20045;-69
2021/01/10 08:15:14;;;;;;;22.33;11.95;;;;;;;;;;5069913;28;20134;-69
2021/01/10 08:17:40;;;;;;;21.48;11.65;;;;;;;;;;5069827;28;20048;-70
2021/01/10 08:20:08;;;;;;;17.83;11.77;;;;;;;;;;5069866;28;20101;-70
2021/01/10 08:22:34;;;;;;;21.83;12.05;;;;;;;;;;5069921;28;20052;-69
2021/01/10 08:25:01;;;;;;;24.45;12.10;;;;;;;;;;5070544;28;20048;-69
2021/01/10 08:27:27;;;;;;;18.67;12.32;;;;;;;;;;5069454;28;20052;-69
2021/01/10 08:29:54;;;;;;;22.77;12.27;;;;;;;;;;5071150;28;20048;-69
2021/01/10 08:32:21;;;;;;;21.08;12.93;;;;;;;;;;5070749;28;20056;-70
2021/01/10 08:34:48;;;;;;;20.65;11.93;;;;;;;;;;5069685;28;20052;-70
2021/01/10 08:37:20;;;;;;;21.15;12.20;;;;;;;;;;5070072;28;20052;-70
2021/01/10 08:40:06;;;;;;;21.10;12.20;;;;;;;;;;5070484;28;20079;-70
2021/01/10 08:42:33;;;;;;;20.73;12.13;;;;;;;;;;5070590;28;20109;-70
2021/01/10 08:45:19;;;;;;;22.73;12.85;;;;;;;;;;5069109;28;20752;-70
2021/01/10 08:47:46;;;;;;;19.50;12.50;;;;;;;;;;5070486;28;20053;-70
2021/01/10 08:50:12;;;;;;;20.50;11.73;;;;;;;;;;5069931;28;20072;-70
2021/01/10 08:52:58;;;;;;;18.95;11.32;;;;;;;;;;5070297;28;20052;-71
2021/01/10 08:55:31;;;;;;;21.33;13.55;;;;;;;;;;5052437;28;20102;-71
2021/01/10 08:57:59;;;;;;;20.98;11.85;;;;;;;;;;5070326;28;20558;-70
2021/01/10 09:00:25;;;;;;;21.08;12.00;;;;;;;;;;5070128;28;20185;-70
2021/01/10 09:02:51;;;;;;;20.70;11.77;;;;;;;;;;5069941;28;20066;-70
2021/01/10 09:05:27;;;;;;;19.50;11.25;;;;;;;;;;5069405;28;20090;-70
2021/01/10 09:07:57;;;;;;;23.25;12.90;;;;;;;;;;5049444;28;20045;-70
2021/01/10 09:10:23;;;;;;;21.70;12.98;;;;;;;;;;5049449;28;20488;-70
2021/01/10 09:12:52;;;;;;;22.83;12.25;;;;;;;;;;5052460;28;20106;-70
2021/01/10 09:15:20;;;;;;;18.58;12.05;;;;;;;;;;5050831;28;20037;-67
2021/01/10 09:17:55;;;;;;;14.90;8.50;;;;;;;;;;5045353;28;20045;-71
2021/01/10 09:20:25;;;;;;;22.70;11.68;;;;;;;;;;5046732;28;20092;-70
2021/01/10 09:22:53;;;;;;;22.25;12.00;;;;;;;;;;5030593;28;20056;-71
2021/01/10 09:25:19;;;;;;;18.75;12.00;;;;;;;;;;5047188;28;20053;-68
2021/01/10 09:28:05;;;;;;;20.85;11.15;;;;;;;;;;5048414;28;20044;-70
2021/01/10 09:30:32;;;;;;;19.73;11.60;;;;;;;;;;5046822;28;20091;-70
2021/01/10 09:32:58;;;;;;;22.70;13.35;;;;;;;;;;5047132;28;20056;-69
2021/01/10 09:35:25;;;;;;;24.73;13.50;;;;;;;;;;5048181;28;20048;-68
2021/01/10 09:37:51;;;;;;;20.23;11.48;;;;;;;;;;5049203;28;20048;-70
2021/01/10 09:40:17;;;;;;;20.98;12.18;;;;;;;;;;5049427;28;20135;-71
2021/01/10 09:42:44;;;;;;;21.50;12.27;;;;;;;;;;5048932;28;20305;-72
2021/01/10 09:45:12;;;;;;;20.00;12.10;;;;;;;;;;5031842;28;20072;-68
2021/01/10 09:47:47;;;;;;;19.42;11.70;;;;;;;;;;5043882;28;20049;-72
2021/01/10 09:50:15;;;;;;;21.58;12.73;;;;;;;;;;5031798;28;20048;-67
2021/01/10 09:52:51;;;;;;;21.45;12.70;;;;;;;;;;5049498;28;20098;-69
2021/01/10 09:55:18;;;;;;;21.90;12.98;;;;;;;;;;5048993;28;20122;-70
2021/01/10 09:57:44;;;;;;;22.77;13.45;;;;;;;;;;5048252;28;20049;-69
2021/01/10 10:00:15;;;;;;;21.90;14.13;;;;;;;;;;5050639;28;20081;-69
2021/01/10 10:02:43;;;;;;;23.52;13.30;;;;;;;;;;5046760;28;20088;-69
2021/01/10 10:05:25;;;;;;;23.70;13.48;;;;;;;;;;5044500;28;20133;-69
2021/01/10 10:07:59;;;;;;;23.13;14.63;;;;;;;;;;5049415;28;20412;-70
2021/01/10 10:10:27;;;;;;;22.77;13.00;;;;;;;;;;5050338;28;20570;-69
2021/01/10 10:12:54;;;;;;;19.05;11.80;;;;;;;;;;5048266;28;20076;-69
2021/01/10 10:15:21;;;;;;;17.02;10.98;;;;;;;;;;5050360;28;20122;-71
2021/01/10 10:17:47;;;;;;;19.23;12.45;;;;;;;;;;5049579;28;20049;-71
2021/01/10 10:20:14;;;;;;;17.23;11.18;;;;;;;;;;5048271;28;20045;-69
2021/01/10 10:22:41;;;;;;;19.60;12.57;;;;;;;;;;5045862;28;20523;-69
2021/01/10 10:25:09;;;;;;;20.25;11.80;;;;;;;;;;5048903;28;20143;-70
2021/01/10 10:27:36;;;;;;;17.40;10.88;;;;;;;;;;5049692;28;20079;-69
2021/01/10 10:30:03;;;;;;;15.85;9.98;;;;;;;;;;5049062;28;20049;-73
2021/01/10 10:32:29;;;;;;;15.73;10.27;;;;;;;;;;5048705;28;20590;-71
2021/01/10 10:34:55;;;;;;;15.73;10.38;;;;;;;;;;5050206;28;20500;-70
2021/01/10 10:37:22;;;;;;;17.60;9.90;;;;;;;;;;5049215;28;20045;-69
2021/01/10 10:39:48;;;;;;;14.63;8.63;;;;;;;;;;5042612;28;20513;-68
2021/01/10 10:42:16;;;;;;;12.27;7.90;;;;;;;;;;5046103;28;20122;-70
2021/01/10 10:44:43;;;;;;;13.15;8.40;;;;;;;;;;5046608;28;20162;-71
2021/01/10 10:47:13;;;;;;;12.07;8.10;;;;;;;;;;5019212;28;20052;-69
2021/01/10 10:49:41;;;;;;;12.52;8.68;;;;;;;;;;5051342;28;20514;-69
2021/01/10 10:52:08;;;;;;;15.98;10.13;;;;;;;;;;5049898;28;20115;-66
2021/01/10 10:54:34;;;;;;;19.00;10.13;;;;;;;;;;5049248;28;20094;-66
2021/01/10 10:57:00;;;;;;;15.68;9.95;;;;;;;;;;5049647;28;20056;-69
2021/01/10 10:59:27;;;;;;;13.35;8.13;;;;;;;;;;5049217;28;20495;-68
2021/01/10 11:01:53;;;;;;;13.00;8.02;;;;;;;;;;5049450;28;20048;-68
2021/01/10 11:04:20;;;;;;;18.63;8.52;;;;;;;;;;5051596;28;20128;-71
2021/01/10 11:06:46;;;;;;;12.05;7.68;;;;;;;;;;5052793;28;20055;-70
2021/01/10 11:09:12;;;;;;;13.00;8.13;;;;;;;;;;5053713;28;20053;-72
2021/01/10 11:11:40;;;;;;;15.38;8.95;;;;;;;;;;5056678;28;20500;-71
2021/01/10 11:14:08;;;;;;;13.25;8.23;;;;;;;;;;5053240;28;20080;-70
2021/01/10 11:16:36;;;;;;;13.88;8.40;;;;;;;;;;5051812;28;20387;-69
2021/01/10 11:19:06;;;;;;;12.73;7.88;;;;;;;;;;5053460;28;20052;-73
2021/01/10 11:22:00;;;;;;;12.27;8.35;;;;;;;;;;5028666;28;20111;-69
2021/01/10 11:24:26;;;;;;;11.80;7.32;;;;;;;;;;5046548;28;20041;-71
2021/01/10 11:26:59;;;;;;;17.55;7.90;;;;;;;;;;5051621;28;20075;-70
2021/01/10 11:29:26;;;;;;;13.68;8.38;;;;;;;;;;5052933;28;20573;-71
2021/01/10 11:31:52;;;;;;;12.45;8.13;;;;;;;;;;5057615;28;20044;-72
2021/01/10 11:34:19;;;;;;;12.48;8.05;;;;;;;;;;5052589;28;20102;-71
2021/01/10 11:36:47;;;;;;;12.85;8.18;;;;;;;;;;5050488;28;20045;-71
2021/01/10 11:39:14;;;;;;;12.38;7.88;;;;;;;;;;5053885;28;20473;-72
2021/01/10 11:41:54;;;;;;;11.48;7.43;;;;;;;;;;5035383;28;20491;-71
2021/01/10 11:44:21;;;;;;;12.13;7.70;;;;;;;;;;5052655;28;20130;-70
2021/01/10 11:49:36;;;;;;;10.55;7.15;;;;;;;;;;5037946;28;20045;-74
2021/01/10 11:52:02;;;;;;;10.75;7.03;;;;;;;;;;5051634;28;20041;-69
2021/01/10 11:54:28;;;;;;;10.35;7.13;;;;;;;;;;5052185;28;20053;-69
2021/01/10 11:56:54;;;;;;;11.27;7.38;;;;;;;;;;5052258;28;20110;-69
2021/01/10 11:59:20;;;;;;;12.57;8.07;;;;;;;;;;5052314;28;20085;-69
2021/01/10 12:01:46;;;;;;;9.95;6.95;;;;;;;;;;5052529;28;20476;-69
2021/01/10 12:04:13;;;;;;;10.73;6.80;;;;;;;;;;5051578;28;20488;-70
2021/01/10 12:06:40;;;;;;;12.07;7.45;;;;;;;;;;5052304;28;20084;-71
2021/01/10 12:09:10;;;;;;;10.38;6.60;;;;;;;;;;5051734;28;20048;-73
2021/01/10 12:11:37;;;;;;;10.57;7.10;;;;;;;;;;5048646;28;20060;-74
2021/01/10 12:14:03;;;;;;;11.43;7.13;;;;;;;;;;5051976;28;20083;-70
2021/01/10 12:16:29;;;;;;;10.82;7.00;;;;;;;;;;5050911;28;20072;-72
2021/01/10 12:18:55;;;;;;;12.05;7.15;;;;;;;;;;5051619;28;20045;-70
2021/01/10 12:21:22;;;;;;;12.13;7.22;;;;;;;;;;5051709;28;20103;-71
2021/01/10 12:23:48;;;;;;;13.13;7.93;;;;;;;;;;5051443;28;20041;-72
2021/01/10 12:26:15;;;;;;;12.02;8.02;;;;;;;;;;5051463;28;20060;-70
2021/01/10 12:28:57;;;;;;;11.27;7.43;;;;;;;;;;5051663;28;20122;-71
2021/01/10 12:31:24;;;;;;;9.70;6.13;;;;;;;;;;5048679;28;20102;-71
2021/01/10 12:33:51;;;;;;;10.77;7.20;;;;;;;;;;5050817;28;20083;-71
2021/01/10 12:36:18;;;;;;;10.57;6.53;;;;;;;;;;5067584;22;20590;-72
2021/01/10 12:38:44;;;;;;;10.05;6.75;;;;;;;;;;5053963;28;20117;-72
2021/01/10 12:41:11;;;;;;;9.52;6.05;;;;;;;;;;5051443;28;20045;-72
2021/01/10 12:43:38;;;;;;;8.35;5.00;;;;;;;;;;5017721;28;20056;-72
2021/01/10 12:46:05;;;;;;;10.07;5.95;;;;;;;;;;5041101;28;20045;-71
2021/01/10 12:48:32;;;;;;;8.35;5.32;;;;;;;;;;5004195;28;20065;-72
2021/01/10 12:51:02;;;;;;;11.02;6.15;;;;;;;;;;5016385;28;20061;-71
2021/01/10 12:53:28;;;;;;;8.98;6.15;;;;;;;;;;5019713;28;20534;-69
2021/01/10 12:55:55;;;;;;;10.70;7.13;;;;;;;;;;5021746;28;20045;-69
2021/01/10 12:58:22;;;;;;;10.73;6.82;;;;;;;;;;5037894;28;20103;-70
2021/01/10 13:00:49;;;;;;;11.23;7.10;;;;;;;;;;5056157;28;20064;-69
2021/01/10 13:03:18;;;;;;;12.73;7.03;;;;;;;;;;5037922;28;20050;-70
2021/01/10 13:05:45;;;;;;;12.43;7.30;;;;;;;;;;5023621;28;20068;-72
2021/01/10 13:08:14;;;;;;;11.73;7.10;;;;;;;;;;5038286;28;20412;-70
2021/01/10 13:10:41;;;;;;;12.63;7.35;;;;;;;;;;5040789;28;20041;-73
2021/01/10 13:13:08;;;;;;;12.68;7.57;;;;;;;;;;5037947;28;20049;-71
2021/01/10 13:15:39;;;;;;;10.50;6.53;;;;;;;;;;5024018;28;20131;-71
2021/01/10 13:18:09;;;;;;;10.02;6.72;;;;;;;;;;5006063;28;20072;-71
2021/01/10 13:20:42;;;;;;;12.82;7.70;;;;;;;;;;5010724;28;20084;-71
2021/01/10 13:23:15;;;;;;;10.25;6.90;;;;;;;;;;5024532;28;20064;-71
2021/01/10 13:25:45;;;;;;;10.57;6.90;;;;;;;;;;5039784;28;20083;-70
2021/01/10 13:28:18;;;;;;;12.05;7.38;;;;;;;;;;5024714;28;20103;-71
2021/01/10 13:30:45;;;;;;;12.90;7.70;;;;;;;;;;5038032;28;20049;-69
2021/01/10 13:33:12;;;;;;;12.93;8.38;;;;;;;;;;5037116;28;20493;-70
2021/01/10 13:36:00;;;;;;;12.02;7.90;;;;;;;;;;5038302;28;20045;-71
2021/01/10 13:38:31;;;;;;;12.75;7.30;;;;;;;;;;5012871;28;20060;-69
2021/01/10 13:40:57;;;;;;;11.00;7.07;;;;;;;;;;5050839;28;20132;-71
2021/01/10 13:43:26;;;;;;;13.18;7.53;;;;;;;;;;5040183;28;20041;-72
2021/01/10 13:45:53;;;;;;;11.57;7.53;;;;;;;;;;5037285;28;20504;-69
2021/01/10 13:48:20;;;;;;;11.63;7.30;;;;;;;;;;5035896;28;20053;-70
2021/01/10 13:50:46;;;;;;;12.52;7.70;;;;;;;;;;5035932;28;21024;-70
2021/01/10 13:53:14;;;;;;;10.55;7.18;;;;;;;;;;5035840;28;20448;-70
2021/01/10 13:55:44;;;;;;;9.07;6.28;;;;;;;;;;5038975;28;20057;-70
2021/01/10 13:58:11;;;;;;;12.80;7.32;;;;;;;;;;5039031;28;20111;-70
2021/01/10 14:00:37;;;;;;;12.88;7.75;;;;;;;;;;5037741;28;20041;-70
2021/01/10 14:03:04;;;;;;;13.10;8.07;;;;;;;;;;5034920;28;20144;-70
2021/01/10 14:05:30;;;;;;;13.95;8.38;;;;;;;;;;5019181;28;20049;-71
2021/01/10 14:07:57;;;;;;;11.95;7.85;;;;;;;;;;5035165;28;20045;-70
2021/01/10 14:10:23;;;;;;;12.60;7.93;;;;;;;;;;5038058;28;20124;-71
2021/01/10 14:12:50;;;;;;;11.43;7.65;;;;;;;;;;5035019;28;20049;-71
2021/01/10 14:15:17;;;;;;;12.20;8.05;;;;;;;;;;5035898;28;20107;-70
2021/01/10 14:17:43;;;;;;;15.23;9.05;;;;;;;;;;5038225;28;20060;-70
2021/01/10 14:20:10;;;;;;;12.77;8.55;;;;;;;;;;5036929;28;20044;-70
2021/01/10 14:22:37;;;;;;;13.43;8.38;;;;;;;;;;5037319;28;20514;-69
2021/01/10 14:25:04;;;;;;;11.40;7.63;;;;;;;;;;5041442;28;20045;-69
2021/01/10 14:27:30;;;;;;;12.82;8.48;;;;;;;;;;5034849;28;20053;-69
2021/01/10 14:29:57;;;;;;;12.55;7.78;;;;;;;;;;5035903;28;20622;-69
2021/01/10 14:32:23;;;;;;;11.40;7.63;;;;;;;;;;5036292;28;20068;-71